Airport View

Enter AWOS ICAO identifier for current METAR.

ex. KFNL

KPLU 191915Z AUTO 00000KT 10SM FEW032 BKN039 OVC055 16/07 A3020 RMK AO2

19 Jun 2019 19:44

Frequency: 128.575

Phone: 253-848-2748

Other Area AWOS: KTCM - KGRF - KTIW - KSEA

TAF KTCM 191300Z 1913/2019 17006KT 9999 BKN020 QNH3014INS BECMG 1920/1921 22010G18KT 9999 VCSH BKN030 QNH3009INS BECMG 2003/2004 20010G18KT 8000 -SHRA BKN020 QNH3007INS BECMG 2007/2008 23008KT 9999 VCSH BKN020 610505 QNH3005INS BECMG 2011/2012 22008KT 9000 -SHRA BKN010 610505 QNH3007INS TX18/1922Z TN10/2012Z